Time;durP1;ratioP1;P1;durP2;ratioP2;P2;SDS_P1;SDS_P2;PMS_P1;PMS_P2;Temp;Humidity;BMP_temperature;BMP_pressure;BME280_temperature;BME280_humidity;BME280_pressure;Samples;Min_cycle;Max_cycle;Signal;HPM_P1;HPM_P2
2023/05/14 00:00:29;;;;;;;25.40;14.10;;;;;;;10.61;96.40;101405.04;106991;1254;61011;-83
2023/05/14 00:02:56;;;;;;;23.70;13.50;;;;;;;10.60;96.27;101401.77;106281;1252;74698;-85
2023/05/14 00:05:23;;;;;;;22.80;13.30;;;;;;;10.60;96.15;101404.77;106313;1255;65101;-84
2023/05/14 00:07:50;;;;;;;23.90;13.30;;;;;;;10.58;96.25;101404.11;106266;1255;73672;-88
2023/05/14 00:10:19;;;;;;;24.80;12.10;;;;;;;10.56;96.28;101403.84;106374;1254;62965;-87
2023/05/14 00:12:47;;;;;;;19.60;13.40;;;;;;;10.52;96.11;101399.86;106239;1252;61365;-87
2023/05/14 00:15:15;;;;;;;27.80;12.10;;;;;;;10.50;96.37;101404.71;106053;1252;74604;-85
2023/05/14 00:17:42;;;;;;;23.90;11.10;;;;;;;10.48;96.48;101401.13;106227;1253;63645;-86
2023/05/14 00:20:11;;;;;;;18.30;10.40;;;;;;;10.47;96.77;101403.98;106239;1256;71388;-86
2023/05/14 00:22:38;;;;;;;23.50;11.50;;;;;;;10.47;96.76;101407.63;106097;1257;61358;-87
2023/05/14 00:25:05;;;;;;;25.70;13.70;;;;;;;10.47;96.92;101405.02;107001;1256;61089;-84
2023/05/14 00:27:34;;;;;;;25.50;12.80;;;;;;;10.48;96.80;101406.89;108507;1253;74314;-87
2023/05/14 00:30:03;;;;;;;22.90;13.40;;;;;;;10.47;96.68;101406.91;106841;1252;64426;-85
2023/05/14 00:32:30;;;;;;;19.60;13.80;;;;;;;10.45;96.54;101407.01;106470;1253;72611;-86
2023/05/14 00:34:57;;;;;;;20.50;12.80;;;;;;;10.42;96.57;101405.39;106316;1254;63025;-85
2023/05/14 00:37:24;;;;;;;23.30;14.70;;;;;;;10.38;96.55;101406.29;106299;1255;61629;-82
2023/05/14 00:39:52;;;;;;;16.00;14.10;;;;;;;10.35;96.76;101405.56;106236;1256;74890;-87
2023/05/14 00:42:18;;;;;;;21.90;14.10;;;;;;;10.32;96.99;101405.70;106183;1257;64023;-85
2023/05/14 00:44:46;;;;;;;21.60;15.00;;;;;;;10.31;97.22;101401.40;106487;1256;72625;-84
2023/05/14 00:47:13;;;;;;;26.10;15.30;;;;;;;10.31;97.57;101399.25;106371;1257;61669;-84
2023/05/14 00:49:40;;;;;;;23.70;14.10;;;;;;;10.34;97.86;101400.17;106061;1257;60373;-86
2023/05/14 00:52:09;;;;;;;21.60;15.10;;;;;;;10.38;97.92;101401.60;106185;1257;73620;-87
2023/05/14 00:54:36;;;;;;;21.70;14.80;;;;;;;10.41;97.97;101406.17;106617;1257;63690;-86
2023/05/14 00:57:04;;;;;;;26.20;16.10;;;;;;;10.43;97.81;101409.20;106487;1256;73614;-85
2023/05/14 00:59:31;;;;;;;24.40;14.60;;;;;;;10.45;97.59;101407.02;106247;1257;61414;-85
2023/05/14 01:01:58;;;;;;;20.80;14.90;;;;;;;10.46;97.48;101409.42;106115;1255;61701;-86
2023/05/14 01:04:25;;;;;;;21.90;15.10;;;;;;;10.48;97.32;101410.90;106239;1255;74418;-87
2023/05/14 01:07:15;;;;;;;26.80;15.90;;;;;;;10.48;97.69;101411.08;106194;1254;64733;-84
2023/05/14 01:09:54;;;;;;;20.60;14.50;;;;;;;10.50;98.09;101410.63;106145;1260;72593;-87
2023/05/14 01:13:07;;;;;;;27.20;13.40;;;;;;;10.54;98.41;101419.36;106148;1253;61995;-85
2023/05/14 01:15:35;;;;;;;21.00;13.50;;;;;;;10.57;98.26;101418.67;106003;1252;60975;-86
2023/05/14 01:18:13;;;;;;;19.10;13.10;;;;;;;10.60;98.48;101420.48;106217;1257;74799;-87
2023/05/14 01:20:40;;;;;;;19.10;14.20;;;;;;;10.65;98.58;101422.16;106323;1255;63782;-84
2023/05/14 01:23:07;;;;;;;21.60;14.60;;;;;;;10.70;98.51;101418.77;106124;1256;73372;-85
2023/05/14 01:25:36;;;;;;;25.90;16.70;;;;;;;10.73;98.41;101418.80;106260;1256;61375;-86
2023/05/14 01:28:16;;;;;;;21.80;15.30;;;;;;;10.72;98.17;101415.55;106561;1254;60457;-86
2023/05/14 01:31:18;;;;;;;21.10;13.20;;;;;;;10.68;97.93;101416.45;107929;1254;75041;-86
2023/05/14 01:33:45;;;;;;;16.10;13.00;;;;;;;10.59;97.63;101415.80;106171;1263;65402;-86
2023/05/14 01:36:12;;;;;;;19.40;11.40;;;;;;;10.54;97.67;101413.42;105647;1261;72637;-87
2023/05/14 01:38:44;;;;;;;18.50;13.30;;;;;;;10.50;97.73;101416.73;105574;1267;62709;-85
2023/05/14 01:41:12;;;;;;;18.80;13.10;;;;;;;10.48;97.62;101423.33;105530;1261;60525;-86
2023/05/14 01:43:39;;;;;;;19.50;12.00;;;;;;;10.43;97.78;101419.70;105577;1263;73956;-85
2023/05/14 01:46:07;;;;;;;18.30;12.80;;;;;;;10.40;98.01;101420.52;105550;1259;64702;-84
2023/05/14 01:48:34;;;;;;;19.80;13.00;;;;;;;10.41;98.22;101419.42;106306;1265;73669;-86
2023/05/14 01:51:02;;;;;;;17.40;13.70;;;;;;;10.41;98.11;101418.05;106076;1264;61576;-86
2023/05/14 01:53:29;;;;;;;25.50;13.70;;;;;;;10.40;97.92;101418.45;105590;1263;61195;-86
2023/05/14 01:55:56;;;;;;;24.40;13.00;;;;;;;10.35;97.78;101417.60;105608;1261;74855;-87
2023/05/14 01:58:23;;;;;;;18.20;12.50;;;;;;;10.31;97.96;101417.80;105465;1264;64651;-85
2023/05/14 02:00:51;;;;;;;19.70;14.00;;;;;;;10.28;98.18;101420.01;105597;1259;72778;-85
2023/05/14 02:03:18;;;;;;;19.70;12.40;;;;;;;10.27;98.11;101418.81;105664;1264;61888;-85
2023/05/14 02:05:46;;;;;;;20.60;12.70;;;;;;;10.26;98.38;101416.95;107317;1263;61266;-84
2023/05/14 02:08:13;;;;;;;19.80;12.40;;;;;;;10.27;98.62;101417.63;106743;1263;73753;-84
2023/05/14 02:10:40;;;;;;;15.90;12.40;;;;;;;10.28;98.59;101418.98;106296;1252;63487;-84
2023/05/14 02:13:08;;;;;;;20.50;13.90;;;;;;;10.28;98.46;101417.40;106168;1253;74230;-87
2023/05/14 02:15:35;;;;;;;20.10;13.40;;;;;;;10.26;98.37;101422.00;106079;1256;60555;-85
2023/05/14 02:18:02;;;;;;;20.30;12.20;;;;;;;10.26;98.30;101422.73;106108;1256;60795;-85
2023/05/14 02:20:30;;;;;;;15.20;10.50;;;;;;;10.22;98.32;101423.23;106159;1255;74753;-83
2023/05/14 02:22:57;;;;;;;15.80;10.00;;;;;;;10.18;98.52;101420.12;106161;1254;64896;-84
2023/05/14 02:25:24;;;;;;;17.90;11.30;;;;;;;10.14;98.75;101421.88;106355;1253;74122;-85
2023/05/14 02:27:51;;;;;;;22.90;11.30;;;;;;;10.11;98.86;101420.59;106279;1255;60772;-84
2023/05/14 02:30:18;;;;;;;23.40;12.50;;;;;;;10.11;99.23;101421.27;106248;1252;62006;-85
2023/05/14 02:32:46;;;;;;;20.90;13.10;;;;;;;10.11;99.45;101422.85;108536;1254;74661;-82
2023/05/14 02:35:14;;;;;;;21.50;13.00;;;;;;;10.13;99.70;101422.27;108426;1254;62786;-81
2023/05/14 02:37:41;;;;;;;18.80;13.40;;;;;;;10.14;99.84;101421.16;107191;1254;73904;-83
2023/05/14 02:40:09;;;;;;;23.10;11.80;;;;;;;10.15;99.74;101424.63;106328;1254;63148;-84
2023/05/14 02:42:36;;;;;;;17.40;11.10;;;;;;;10.14;99.57;101423.23;106262;1254;61438;-86
2023/05/14 02:45:03;;;;;;;16.70;11.30;;;;;;;10.13;99.56;101423.98;106122;1254;73857;-85
2023/05/14 02:47:32;;;;;;;22.20;12.20;;;;;;;10.12;99.77;101415.16;106050;1256;64725;-85
2023/05/14 02:50:03;;;;;;;21.00;11.10;;;;;;;10.13;100.00;101420.86;106228;1254;72614;-85
2023/05/14 02:52:31;;;;;;;18.30;10.40;;;;;;;10.16;100.00;101422.64;106169;1256;63501;-85
2023/05/14 02:54:57;;;;;;;20.70;11.30;;;;;;;10.21;100.00;101419.14;106088;1257;61393;-85
2023/05/14 02:57:25;;;;;;;18.60;11.30;;;;;;;10.24;100.00;101420.71;106175;1254;74628;-86
2023/05/14 02:59:52;;;;;;;19.60;12.10;;;;;;;10.27;100.00;101423.20;106103;1253;63998;-85
2023/05/14 03:02:19;;;;;;;19.20;11.80;;;;;;;10.29;99.92;101418.92;106105;1252;72710;-85
2023/05/14 03:04:47;;;;;;;20.90;12.50;;;;;;;10.29;99.71;101417.54;106178;1253;61250;-86
2023/05/14 03:07:14;;;;;;;19.30;12.10;;;;;;;10.30;99.84;101418.58;106648;1254;61910;-86
2023/05/14 03:09:42;;;;;;;25.60;11.60;;;;;;;10.30;100.00;101416.13;106217;1254;74649;-85
2023/05/14 03:12:09;;;;;;;15.00;10.30;;;;;;;10.31;100.00;101418.67;106439;1255;63708;-86
2023/05/14 03:14:36;;;;;;;27.10;11.40;;;;;;;10.33;100.00;101422.59;106511;1254;73517;-90
2023/05/14 03:17:03;;;;;;;18.50;10.90;;;;;;;10.38;100.00;101424.98;106257;1257;63192;-85
2023/05/14 03:19:31;;;;;;;15.70;10.40;;;;;;;10.46;100.00;101422.02;106768;1257;61051;-86
2023/05/14 03:22:00;;;;;;;14.80;10.70;;;;;;;10.56;100.00;101422.61;106780;1252;74646;-85
2023/05/14 03:24:26;;;;;;;17.70;11.60;;;;;;;10.67;100.00;101427.14;106785;1257;64663;-88
2023/05/14 03:26:54;;;;;;;19.00;11.30;;;;;;;10.76;100.00;101423.73;106178;1254;74082;-87
2023/05/14 03:29:21;;;;;;;14.20;10.70;;;;;;;10.85;100.00;101427.36;106471;1254;62853;-86
2023/05/14 03:31:49;;;;;;;20.60;10.80;;;;;;;10.92;99.85;101425.23;105982;1256;60485;-88
2023/05/14 03:34:16;;;;;;;18.90;10.00;;;;;;;10.99;99.81;101424.36;106084;1257;74971;-88
2023/05/14 03:36:43;;;;;;;16.40;9.90;;;;;;;11.06;99.83;101430.32;105958;1254;64191;-87
2023/05/14 03:39:10;;;;;;;16.80;9.40;;;;;;;11.14;99.68;101430.64;106024;1256;73778;-86
2023/05/14 03:41:38;;;;;;;15.60;8.60;;;;;;;11.22;99.50;101427.82;107748;1253;61652;-85
2023/05/14 03:44:05;;;;;;;15.20;9.30;;;;;;;11.29;99.46;101433.03;107622;1257;60370;-88
2023/05/14 03:46:32;;;;;;;17.30;9.60;;;;;;;11.39;99.50;101434.63;106648;1256;75320;-85
2023/05/14 03:48:59;;;;;;;17.50;10.10;;;;;;;11.51;99.35;101437.89;106191;1254;64637;-88
2023/05/14 03:51:26;;;;;;;14.60;10.40;;;;;;;11.62;99.37;101437.86;106254;1254;71802;-88
2023/05/14 03:53:53;;;;;;;14.70;10.00;;;;;;;11.73;99.29;101437.86;106050;1254;61483;-85
2023/05/14 03:56:21;;;;;;;14.70;9.90;;;;;;;11.82;99.01;101433.70;106021;1254;61750;-84
2023/05/14 03:58:48;;;;;;;21.80;10.80;;;;;;;11.90;98.63;101436.83;105902;1257;72710;-84
2023/05/14 04:01:15;;;;;;;21.10;9.90;;;;;;;11.95;98.49;101438.81;106001;1254;63922;-85
2023/05/14 04:03:42;;;;;;;26.30;8.50;;;;;;;12.01;98.50;101437.78;106096;1254;72625;-83
2023/05/14 04:06:10;;;;;;;28.30;11.20;;;;;;;12.09;98.72;101437.05;106162;1254;63316;-85
2023/05/14 04:08:37;;;;;;;32.20;12.60;;;;;;;12.18;98.81;101438.48;106080;1254;61147;-84
2023/05/14 04:11:04;;;;;;;30.80;10.90;;;;;;;12.29;98.87;101439.28;106089;1252;75420;-84
2023/05/14 04:13:31;;;;;;;24.50;10.80;;;;;;;12.43;98.99;101435.23;106185;1257;64810;-86
2023/05/14 04:15:59;;;;;;;29.40;12.70;;;;;;;12.61;99.32;101431.07;106023;1254;73334;-85
2023/05/14 04:18:26;;;;;;;30.30;13.00;;;;;;;12.87;99.56;101429.77;106069;1255;61348;-85
2023/05/14 04:20:54;;;;;;;37.80;12.80;;;;;;;13.20;99.60;101428.40;106115;1252;60373;-86
2023/05/14 04:23:21;;;;;;;25.20;10.80;;;;;;;13.56;98.95;101429.68;106028;1254;73686;-86
2023/05/14 04:25:48;;;;;;;23.40;10.10;;;;;;;13.93;98.11;101432.19;106057;1254;63199;-89
2023/05/14 04:28:15;;;;;;;20.70;10.50;;;;;;;14.33;97.08;101435.38;106106;1256;73694;-88
2023/05/14 04:30:42;;;;;;;23.70;10.40;;;;;;;14.74;95.76;101431.55;106127;1253;60900;-86
2023/05/14 04:33:09;;;;;;;24.00;10.00;;;;;;;15.23;93.63;101432.23;106175;1257;60736;-90
2023/05/14 04:35:36;;;;;;;16.90;9.00;;;;;;;15.75;91.54;101439.67;107518;1254;74331;-84
2023/05/14 04:38:03;;;;;;;13.50;8.50;;;;;;;16.35;88.95;101442.38;107496;1256;64815;-84
2023/05/14 04:40:32;;;;;;;16.20;8.00;;;;;;;16.99;85.41;101443.36;106520;1252;72368;-86
2023/05/14 04:42:59;;;;;;;14.40;7.20;;;;;;;17.63;82.40;101440.00;106173;1254;60747;-90
2023/05/14 04:45:26;;;;;;;13.40;5.80;;;;;;;18.19;79.96;101446.81;108157;1253;60482;-85
2023/05/14 04:47:53;;;;;;;12.50;7.60;;;;;;;18.72;76.42;101448.95;107725;1256;73979;-87
2023/05/14 04:50:20;;;;;;;15.30;5.90;;;;;;;19.24;73.32;101443.98;106567;1253;64868;-85
2023/05/14 04:52:50;;;;;;;14.00;5.30;;;;;;;19.66;69.54;101449.73;106252;1256;73009;-87
2023/05/14 04:55:17;;;;;;;6.40;4.30;;;;;;;19.98;67.20;101446.45;106158;1257;61710;-88
2023/05/14 04:57:44;;;;;;;11.30;4.20;;;;;;;20.36;63.25;101443.20;106271;1254;62039;-86
2023/05/14 05:00:12;;;;;;;9.30;4.20;;;;;;;20.76;56.63;101441.55;106187;1255;74834;-88
2023/05/14 05:02:39;;;;;;;8.80;3.90;;;;;;;21.22;55.34;101439.04;106224;1256;63480;-87
2023/05/14 05:05:07;;;;;;;10.60;3.50;;;;;;;21.71;52.72;101442.30;106154;1257;74002;-86
2023/05/14 05:07:34;;;;;;;8.50;3.80;;;;;;;22.20;49.71;101447.81;106138;1253;60488;-87
2023/05/14 05:10:01;;;;;;;9.20;3.70;;;;;;;22.64;46.04;101441.39;105977;1253;61323;-85
2023/05/14 05:12:29;;;;;;;9.90;7.00;;;;;;;23.06;43.62;101445.17;106157;1253;73837;-86
2023/05/14 05:18:44;;;;;;;10.80;3.60;;;;;;;23.91;40.25;101440.63;85295;1270;71132;31
2023/05/14 05:21:11;;;;;;;7.60;4.00;;;;;;;24.35;39.61;101442.66;105724;1278;61861;-91
2023/05/14 05:23:39;;;;;;;7.70;4.30;;;;;;;24.66;38.95;101446.85;105979;1278;60392;-94
2023/05/14 05:26:05;;;;;;;9.40;4.00;;;;;;;25.01;38.61;101447.80;105591;1273;73697;-95
2023/05/14 05:28:33;;;;;;;10.60;4.70;;;;;;;25.33;37.56;101450.23;105141;1273;64164;-96
2023/05/14 05:31:02;;;;;;;11.30;4.30;;;;;;;25.58;37.48;101449.39;105267;1273;72646;-94
2023/05/14 05:33:30;;;;;;;22.90;5.50;;;;;;;25.92;36.72;101451.34;105098;1277;60476;-94
2023/05/14 05:35:57;;;;;;;6.60;4.10;;;;;;;26.17;35.36;101453.96;105178;1273;60433;-94
2023/05/14 05:38:26;;;;;;;6.90;3.60;;;;;;;26.30;34.40;101450.71;105314;1273;73615;-93
2023/05/14 05:40:53;;;;;;;8.30;4.00;;;;;;;26.43;34.49;101452.63;105329;1273;64136;-95
2023/05/14 05:43:20;;;;;;;5.50;3.60;;;;;;;26.60;33.89;101446.88;105435;1272;72533;-92
2023/05/14 05:45:47;;;;;;;11.20;7.90;;;;;;;26.80;33.87;101449.45;105076;1276;61388;-88
2023/05/14 05:48:14;;;;;;;8.90;6.20;;;;;;;27.00;33.39;101446.22;105821;1273;61955;-92
2023/05/14 05:50:50;;;;;;;5.70;4.10;;;;;;;27.10;32.79;101446.10;106102;1275;73480;-94
2023/05/14 05:53:20;;;;;;;5.90;3.70;;;;;;;27.24;32.78;101446.79;105404;1275;63804;-93
2023/05/14 05:55:47;;;;;;;7.70;3.20;;;;;;;27.46;32.13;101444.20;105627;1275;73780;-96
2023/05/14 05:58:16;;;;;;;3.90;2.90;;;;;;;27.68;31.81;101442.19;105390;1276;60673;-94
2023/05/14 06:00:48;;;;;;;4.00;2.40;;;;;;;27.90;31.12;101439.10;105335;1275;61414;-93
2023/05/14 06:03:15;;;;;;;5.40;3.00;;;;;;;28.08;30.66;101435.70;106377;1275;73918;-94
2023/05/14 06:05:43;;;;;;;3.10;2.60;;;;;;;28.26;30.47;101437.15;107117;1275;65443;-94
2023/05/14 06:08:10;;;;;;;6.60;2.80;;;;;;;28.43;30.02;101438.79;107413;1274;72890;-95
2023/05/14 06:10:38;;;;;;;6.00;2.90;;;;;;;28.68;29.77;101442.36;108178;1276;60233;-95
2023/05/14 06:13:05;;;;;;;4.40;3.10;;;;;;;28.87;29.11;101441.94;108152;1267;60748;-94
2023/05/14 06:15:33;;;;;;;6.20;3.20;;;;;;;28.93;29.09;101441.21;106752;1270;72671;-94
2023/05/14 06:18:01;;;;;;;6.60;3.30;;;;;;;29.07;29.09;101440.76;106992;1270;64763;-95
2023/05/14 06:20:29;;;;;;;5.10;3.80;;;;;;;29.19;28.60;101434.98;107091;1270;73748;-95
2023/05/14 06:22:57;;;;;;;13.50;10.30;;;;;;;29.27;28.55;101438.37;105942;1270;61370;-95
2023/05/14 06:25:24;;;;;;;7.40;4.00;;;;;;;29.35;28.47;101439.84;105935;1276;60565;-94
2023/05/14 06:27:51;;;;;;;3.00;2.70;;;;;;;29.49;28.59;101439.50;106510;1276;73850;-95
2023/05/14 06:30:22;;;;;;;6.90;3.50;;;;;;;29.69;28.52;101438.10;107953;1270;63649;-96
2023/05/14 06:32:51;;;;;;;6.50;3.80;;;;;;;29.83;28.14;101439.77;108483;1270;73135;-95
2023/05/14 06:35:22;;;;;;;3.60;3.20;;;;;;;29.82;27.86;101438.48;108052;1270;60564;-96
2023/05/14 06:37:50;;;;;;;10.40;3.40;;;;;;;29.82;27.66;101439.14;108333;1270;61198;-94
2023/05/14 06:40:18;;;;;;;11.00;3.30;;;;;;;29.84;27.58;101439.38;106865;1275;73863;-96
2023/05/14 06:42:48;;;;;;;4.00;3.40;;;;;;;29.92;27.23;101440.24;106863;1275;64563;-95
2023/05/14 06:45:19;;;;;;;6.30;2.90;;;;;;;30.02;26.87;101437.84;107309;1270;72546;-95
2023/05/14 06:47:52;;;;;;;6.10;3.40;;;;;;;30.05;26.59;101433.73;106767;1276;60348;-96
2023/05/14 06:50:21;;;;;;;6.20;3.70;;;;;;;30.13;26.82;101433.31;107865;1270;60210;-96
2023/05/14 06:52:51;;;;;;;4.80;2.90;;;;;;;30.27;26.25;101428.97;107445;1271;74145;-96
2023/05/14 06:55:23;;;;;;;6.90;2.60;;;;;;;30.45;26.30;101429.46;107054;1275;62694;-95
2023/05/14 06:57:51;;;;;;;3.30;2.40;;;;;;;30.62;25.99;101429.38;107137;1270;72885;-96
2023/05/14 07:00:21;;;;;;;4.70;2.20;;;;;;;30.56;25.36;101422.20;105181;1276;1966127;-96
2023/05/14 07:04:05;;;;;;;4.10;2.80;;;;;;;30.57;25.37;101425.66;104988;1292;600090;-96
2023/05/14 07:06:35;;;;;;;12.00;4.00;;;;;;;30.63;25.28;101418.42;107158;1260;59617;-96
2023/05/14 07:09:03;;;;;;;7.90;3.30;;;;;;;30.77;25.08;101417.61;107479;1259;61662;-96
2023/05/14 07:21:44;;;;;;;4.10;2.60;;;;;;;31.55;24.29;101409.50;97213;1267;60419;31
2023/05/14 07:28:20;;;;;;;4.00;2.80;;;;;;;31.74;24.37;101403.11;107677;1276;64786;-95
2023/05/14 07:30:55;;;;;;;9.50;2.80;;;;;;;31.94;24.10;101400.55;107892;1273;71163;-95
2023/05/14 07:33:52;;;;;;;5.10;2.50;;;;;;;32.18;23.61;101395.08;107919;1265;61681;31
2023/05/14 07:36:23;;;;;;;3.30;2.40;;;;;;;32.25;22.90;101393.75;107702;1274;59415;-96
2023/05/14 07:45:56;;;;;;;2.20;2.10;;;;;;;32.42;22.54;101392.92;104440;1263;71466;31
2023/05/14 07:49:02;;;;;;;6.90;1.70;;;;;;;32.61;22.37;101393.84;108001;1271;60860;-96
2023/05/14 07:58:31;;;;;;;3.60;1.80;;;;;;;32.82;21.66;101388.30;107980;1264;64095;31
2023/05/14 08:01:09;;;;;;;2.20;2.00;;;;;;;32.79;21.44;101387.77;107694;1269;73466;-96
2023/05/14 08:07:36;;;;;;;4.30;2.20;;;;;;;33.33;21.73;101384.95;108178;1270;59462;-96
2023/05/14 08:30:21;;;;;;;5.10;2.40;;;;;;;33.02;20.78;101371.63;107963;1269;63396;-95
2023/05/14 08:53:30;;;;;;;4.90;3.60;;;;;;;30.14;23.43;101362.09;108080;1270;59270;-92
2023/05/14 08:56:18;;;;;;;5.70;2.30;;;;;;;29.77;23.71;101357.55;108144;1274;61076;-92
2023/05/14 09:17:26;;;;;;;4.10;2.00;;;;;;;31.01;22.35;101337.04;107711;1264;72150;31
2023/05/14 09:24:00;;;;;;;7.50;2.40;;;;;;;31.67;21.08;101331.61;104864;1263;72462;-96
2023/05/14 09:30:16;;;;;;;2.70;1.90;;;;;;;32.29;20.44;101322.19;108146;1273;61010;-96
2023/05/14 09:33:07;;;;;;;4.00;2.90;;;;;;;32.47;20.05;101316.21;107998;1264;72111;31
2023/05/14 09:45:54;;;;;;;2.90;1.60;;;;;;;33.12;19.44;101295.61;108233;1263;61349;-95
2023/05/14 09:48:23;;;;;;;1.40;1.30;;;;;;;33.22;18.97;101294.09;107778;1270;74391;-96
2023/05/14 09:50:51;;;;;;;4.50;1.70;;;;;;;33.35;19.61;101288.70;107719;1270;66796;-96
2023/05/14 09:53:21;;;;;;;6.00;4.80;;;;;;;33.48;18.72;101286.30;108472;1264;71747;-95
2023/05/14 09:55:54;;;;;;;1.50;1.40;;;;;;;33.54;18.65;101283.58;108052;1270;61770;-95
2023/05/14 10:02:56;;;;;;;5.20;2.10;;;;;;;33.91;19.27;101275.16;108311;1264;72600;-90
2023/05/14 10:05:30;;;;;;;14.50;2.90;;;;;;;34.09;19.08;101272.14;107711;1271;65303;-96
2023/05/14 10:08:34;;;;;;;4.80;2.30;;;;;;;34.26;18.95;101266.45;107954;1270;75475;-96
2023/05/14 10:11:37;;;;;;;14.20;2.90;;;;;;;34.34;18.42;101265.83;107039;1270;61660;-95
2023/05/14 10:14:17;;;;;;;8.20;1.90;;;;;;;34.22;18.72;101261.98;106674;1274;60114;-94
2023/05/14 10:16:52;;;;;;;3.70;2.50;;;;;;;34.19;18.73;101257.94;107280;1274;75377;-96
2023/05/14 10:19:25;;;;;;;3.40;2.40;;;;;;;34.14;18.82;101252.48;108298;1274;65518;-95
2023/05/14 10:22:11;;;;;;;4.50;3.00;;;;;;;34.17;18.75;101254.99;108056;1270;73472;-94
2023/05/14 10:31:56;;;;;;;5.30;2.10;;;;;;;34.57;18.45;101243.61;106948;1264;981628;31
2023/05/14 10:34:44;;;;;;;4.40;1.90;;;;;;;34.64;18.80;101239.56;107798;1264;64952;-94
2023/05/14 19:21:07;;;;;;;14.60;5.20;;;;;;;16.32;71.61;101244.24;105907;1292;600062;-95
2023/05/14 19:24:02;;;;;;;10.40;4.40;;;;;;;16.24;71.91;101250.50;108601;1268;59195;-95
2023/05/14 19:26:49;;;;;;;10.00;6.10;;;;;;;16.17;72.14;101250.45;108409;1263;59454;-95
2023/05/14 19:30:06;;;;;;;10.30;5.20;;;;;;;16.13;72.74;101249.84;108893;1259;73811;-96
2023/05/14 19:32:37;;;;;;;17.70;4.90;;;;;;;16.05;73.33;101250.81;108327;1267;62832;-94
2023/05/14 19:35:10;;;;;;;8.30;5.20;;;;;;;16.02;73.57;101250.30;107396;1267;1288412;-95
2023/05/14 19:37:52;;;;;;;6.50;4.90;;;;;;;15.95;74.10;101253.15;108807;1265;59225;-93
2023/05/14 19:40:21;;;;;;;8.00;4.60;;;;;;;15.92;74.09;101256.13;108753;1267;59760;-95
2023/05/14 19:43:06;;;;;;;9.00;6.10;;;;;;;15.87;73.96;101254.90;108692;1267;73477;-94
2023/05/14 19:45:37;;;;;;;9.00;4.70;;;;;;;15.83;73.13;101249.77;108650;1267;64877;-95
2023/05/14 19:48:37;;;;;;;7.40;5.20;;;;;;;15.78;72.56;101249.60;108560;1267;73623;-95
2023/05/14 19:51:30;;;;;;;12.30;5.70;;;;;;;15.72;74.06;101245.79;108259;1265;61145;-94
2023/05/14 20:00:46;;;;;;;9.30;7.60;;;;;;;15.59;77.63;101246.54;100452;1267;983541;-94
2023/05/14 20:10:30;;;;;;;8.80;5.20;;;;;;;15.34;77.79;101245.98;106156;1267;59178;31
2023/05/14 20:12:59;;;;;;;13.70;6.30;;;;;;;15.29;77.43;101247.58;107855;1274;74452;-96
2023/05/14 20:17:02;;;;;;;8.00;4.60;;;;;;;15.24;78.00;101252.64;107705;1267;64859;31
2023/05/14 20:38:49;;;;;;;13.70;6.50;;;;;;;15.06;83.01;101246.15;106089;1260;5004386;-96
2023/05/14 20:41:40;;;;;;;8.70;6.50;;;;;;;14.95;83.02;101247.21;111086;1241;60293;-95
2023/05/14 20:44:30;;;;;;;15.90;6.50;;;;;;;14.82;83.30;101245.83;111798;1231;71085;-94
2023/05/14 20:47:47;;;;;;;13.60;6.80;;;;;;;14.67;84.21;101246.84;112739;1234;63887;31
2023/05/14 20:53:54;;;;;;;9.50;6.50;;;;;;;14.46;86.05;101251.35;112380;1231;60623;-94
2023/05/14 20:56:25;;;;;;;12.60;6.90;;;;;;;14.38;86.84;101251.25;112656;1229;59846;-93
2023/05/14 20:59:07;;;;;;;11.50;6.30;;;;;;;14.29;87.50;101247.90;112765;1232;70905;-92
2023/05/14 21:04:51;;;;;;;11.30;7.00;;;;;;;14.14;88.96;101251.37;112017;1230;72292;-95
2023/05/14 21:07:25;;;;;;;12.80;6.40;;;;;;;14.06;89.29;101246.77;112265;1230;60105;-95
2023/05/14 21:10:13;;;;;;;10.70;7.80;;;;;;;14.00;89.50;101241.56;111887;1230;58993;-95
2023/05/14 21:12:46;;;;;;;13.90;7.50;;;;;;;13.94;89.85;101240.33;111112;1230;74292;-95
2023/05/14 21:15:23;;;;;;;11.40;7.30;;;;;;;13.87;90.14;101235.16;111930;1230;63724;-96
2023/05/14 21:17:52;;;;;;;13.20;8.00;;;;;;;13.79;90.49;101237.58;112506;1230;73099;-95
2023/05/14 21:20:19;;;;;;;12.10;7.40;;;;;;;13.74;90.52;101240.77;112746;1230;62111;-96
2023/05/14 21:22:47;;;;;;;15.40;6.30;;;;;;;13.65;90.77;101234.98;112829;1232;60367;-96
2023/05/14 21:25:16;;;;;;;11.30;6.80;;;;;;;13.61;91.08;101237.49;111170;1234;72886;-96
2023/05/14 21:27:44;;;;;;;10.30;7.20;;;;;;;13.57;91.33;101236.38;112209;1229;62254;-96
2023/05/14 21:30:12;;;;;;;11.10;7.70;;;;;;;13.53;91.35;101241.54;111760;1230;71931;-96
2023/05/14 21:32:42;;;;;;;12.30;7.40;;;;;;;13.50;91.71;101245.02;110856;1231;60631;-96
2023/05/14 21:35:12;;;;;;;11.90;6.30;;;;;;;13.51;91.72;101245.67;111885;1233;61804;-94
2023/05/14 21:37:47;;;;;;;14.30;7.80;;;;;;;13.49;91.77;101242.66;112154;1231;71989;-96
2023/05/14 21:40:18;;;;;;;14.90;9.40;;;;;;;13.48;91.66;101244.78;111772;1231;61828;-96
2023/05/14 21:42:48;;;;;;;10.70;7.10;;;;;;;13.43;91.64;101241.27;110821;1231;73701;-96
2023/05/14 21:45:16;;;;;;;10.00;6.40;;;;;;;13.37;91.71;101238.15;110623;1231;62866;-95
2023/05/14 21:47:43;;;;;;;10.70;7.30;;;;;;;13.28;91.67;101237.97;110270;1235;61353;-96
2023/05/14 21:50:14;;;;;;;10.20;6.50;;;;;;;13.19;91.92;101238.33;110925;1231;72640;-96
2023/05/14 21:52:42;;;;;;;13.30;7.30;;;;;;;13.12;92.21;101233.86;110296;1231;64038;-96
2023/05/14 21:55:10;;;;;;;12.00;6.90;;;;;;;13.07;92.77;101229.41;110428;1232;72314;-96
2023/05/14 21:57:39;;;;;;;13.20;6.60;;;;;;;13.03;93.43;101231.73;110374;1231;61880;-95
2023/05/14 22:00:11;;;;;;;12.60;6.40;;;;;;;13.01;93.37;101228.67;110887;1232;59225;-95
2023/05/14 22:02:45;;;;;;;14.60;7.00;;;;;;;12.98;93.24;101224.66;111756;1235;74048;-94
2023/05/14 22:05:54;;;;;;;10.20;6.60;;;;;;;12.99;93.11;101219.52;106533;1284;600068;-95
2023/05/14 22:08:22;;;;;;;13.40;8.10;;;;;;;12.94;92.90;101218.22;107300;1266;61432;-94
2023/05/14 22:10:50;;;;;;;13.00;7.70;;;;;;;12.90;93.02;101217.13;106773;1267;61152;-95
2023/05/14 22:13:17;;;;;;;14.90;8.50;;;;;;;12.84;93.28;101211.80;106656;1253;70996;-95
2023/05/14 22:15:45;;;;;;;14.00;7.30;;;;;;;12.79;93.52;101209.30;107230;1253;64425;-94
2023/05/14 22:18:23;;;;;;;11.80;7.90;;;;;;;12.73;93.65;101206.69;106086;1258;1830615;-96
2023/05/14 22:20:50;;;;;;;12.10;8.00;;;;;;;12.67;93.87;101208.77;108258;1257;59010;-95
2023/05/14 22:23:17;;;;;;;17.10;9.00;;;;;;;12.65;94.03;101207.35;107776;1254;59286;-95
2023/05/14 22:25:45;;;;;;;14.60;8.30;;;;;;;12.63;94.22;101203.73;107947;1254;73205;-95
2023/05/14 22:28:12;;;;;;;13.70;9.10;;;;;;;12.63;94.28;101200.63;107234;1254;65937;-94
2023/05/14 22:30:46;;;;;;;16.50;10.90;;;;;;;12.62;94.63;101193.98;107302;1254;74956;-95
2023/05/14 22:33:13;;;;;;;20.80;12.50;;;;;;;12.65;94.39;101195.41;107359;1254;61143;-95
2023/05/14 22:35:41;;;;;;;20.40;12.00;;;;;;;12.65;94.17;101192.08;107552;1252;62495;-95
2023/05/14 22:38:13;;;;;;;19.90;11.30;;;;;;;12.62;93.98;101193.10;107151;1259;73963;-94
2023/05/14 22:40:40;;;;;;;16.40;10.70;;;;;;;12.59;93.94;101195.73;107029;1254;63286;-95
2023/05/14 22:43:07;;;;;;;10.80;9.10;;;;;;;12.55;94.01;101197.92;108410;1253;73426;-95
2023/05/14 22:45:36;;;;;;;15.30;8.50;;;;;;;12.51;94.29;101201.69;108474;1251;64048;-94
2023/05/14 22:48:04;;;;;;;13.90;7.90;;;;;;;12.45;94.57;101196.28;109174;1257;61141;-93
2023/05/14 22:50:32;;;;;;;18.20;8.80;;;;;;;12.43;94.82;101200.55;109016;1257;74029;-95
2023/05/14 22:53:21;;;;;;;13.40;9.10;;;;;;;12.39;95.05;101200.95;108205;1258;64821;-96
2023/05/14 22:55:51;;;;;;;19.20;10.10;;;;;;;12.37;95.34;101203.89;107973;1257;73421;-95